createdAt,value
2023-05-12T00:00:48.968Z,14.70
2023-05-12T00:03:17.195Z,14.70
2023-05-12T00:05:45.399Z,14.60
2023-05-12T00:08:13.547Z,14.60
2023-05-12T00:10:43.057Z,14.60
2023-05-12T00:13:11.296Z,14.50
2023-05-12T00:15:39.582Z,14.40
2023-05-12T00:18:07.850Z,14.30
2023-05-12T00:20:36.329Z,14.10
2023-05-12T00:23:04.734Z,14.20
2023-05-12T00:25:32.912Z,14.30
2023-05-12T00:28:02.462Z,14.30
2023-05-12T00:30:30.822Z,14.30
2023-05-12T00:32:59.742Z,14.20
2023-05-12T00:35:28.121Z,14.10
2023-05-12T00:37:56.322Z,14.10
2023-05-12T00:40:24.479Z,14.20
2023-05-12T00:42:52.610Z,14.10
2023-05-12T00:45:22.181Z,14.10
2023-05-12T00:47:53.429Z,14.00
2023-05-12T00:50:22.764Z,14.00
2023-05-12T00:52:51.477Z,13.90
2023-05-12T00:55:20.583Z,13.80
2023-05-12T00:57:48.748Z,13.70
2023-05-12T01:00:18.035Z,13.70
2023-05-12T01:02:48.330Z,13.70
2023-05-12T01:05:16.860Z,13.60
2023-05-12T01:07:47.906Z,13.40
2023-05-12T01:10:20.558Z,13.40
2023-05-12T01:12:49.355Z,13.30
2023-05-12T01:15:18.927Z,13.20
2023-05-12T01:17:54.673Z,13.10
2023-05-12T01:20:27.347Z,13.10
2023-05-12T01:22:56.996Z,13.00
2023-05-12T01:25:28.001Z,13.10
2023-05-12T01:27:57.845Z,13.30
2023-05-12T01:30:27.420Z,13.30
2023-05-12T01:32:56.212Z,13.10
2023-05-12T01:35:24.503Z,12.80
2023-05-12T01:37:52.949Z,12.70
2023-05-12T01:40:21.580Z,12.80
2023-05-12T01:42:50.968Z,12.80
2023-05-12T01:45:20.645Z,12.70
2023-05-12T01:47:48.821Z,12.60
2023-05-12T01:50:17.117Z,12.50
2023-05-12T01:52:46.207Z,12.40
2023-05-12T01:55:14.398Z,12.40
2023-05-12T01:57:42.579Z,12.40
2023-05-12T02:00:13.147Z,12.50
2023-05-12T02:02:43.661Z,12.40
2023-05-12T02:05:12.987Z,12.40
2023-05-12T02:07:41.191Z,12.40
2023-05-12T02:10:10.663Z,12.30
2023-05-12T02:12:39.075Z,12.20
2023-05-12T02:15:08.350Z,12.00
2023-05-12T02:17:36.902Z,12.00
2023-05-12T02:20:08.766Z,11.90
2023-05-12T02:22:36.899Z,11.80
2023-05-12T02:25:05.948Z,11.70
2023-05-12T02:27:34.101Z,11.70
2023-05-12T02:30:02.345Z,11.60
2023-05-12T02:32:30.555Z,11.60
2023-05-12T02:34:58.725Z,11.60
2023-05-12T02:37:28.249Z,11.50
2023-05-12T02:39:56.392Z,11.40
2023-05-12T02:42:24.593Z,11.30
2023-05-12T02:44:52.707Z,11.20
2023-05-12T02:47:20.915Z,11.20
2023-05-12T02:49:49.032Z,11.20
2023-05-12T02:52:17.165Z,11.10
2023-05-12T02:54:46.645Z,11.00
2023-05-12T02:57:14.807Z,10.90
2023-05-12T02:59:43.003Z,11.00
2023-05-12T03:02:11.286Z,11.00
2023-05-12T03:04:39.501Z,11.10
2023-05-12T03:07:07.880Z,11.20
2023-05-12T03:09:36.138Z,11.10
2023-05-12T03:12:06.482Z,11.10
2023-05-12T03:14:34.627Z,11.30
2023-05-12T03:17:03.052Z,11.10
2023-05-12T03:19:31.314Z,11.00
2023-05-12T03:21:59.862Z,10.90
2023-05-12T03:24:28.180Z,10.90
2023-05-12T03:26:57.131Z,10.80
2023-05-12T03:29:26.727Z,10.50
2023-05-12T03:31:54.934Z,10.40
2023-05-12T03:34:23.114Z,10.40
2023-05-12T03:36:51.330Z,10.50
2023-05-12T03:39:19.443Z,10.50
2023-05-12T03:41:47.577Z,10.40
2023-05-12T03:44:15.818Z,10.30
2023-05-12T03:46:45.478Z,10.10
2023-05-12T03:49:13.832Z,10.10
2023-05-12T03:51:42.480Z,10.00
2023-05-12T03:54:10.832Z,10.00
2023-05-12T03:56:38.966Z,10.00
2023-05-12T03:59:07.205Z,10.00
2023-05-12T04:01:35.823Z,10.10
2023-05-12T04:04:06.019Z,10.30
2023-05-12T04:06:34.248Z,10.30
2023-05-12T04:09:02.384Z,10.50
2023-05-12T04:11:31.128Z,10.60
2023-05-12T04:13:59.322Z,10.70
2023-05-12T04:16:27.766Z,10.90
2023-05-12T04:18:57.323Z,11.00
2023-05-12T04:21:26.858Z,11.10
2023-05-12T04:23:55.013Z,11.20
2023-05-12T04:26:23.167Z,11.40
2023-05-12T04:28:51.395Z,11.30
2023-05-12T04:31:19.599Z,11.40
2023-05-12T04:33:48.487Z,11.50
2023-05-12T04:36:16.727Z,11.60
2023-05-12T04:38:46.598Z,11.70
2023-05-12T04:41:14.817Z,11.90
2023-05-12T04:46:14.498Z,12.10
2023-05-12T04:48:43.460Z,12.10
2023-05-12T04:51:11.651Z,12.30
2023-05-12T04:53:39.794Z,12.40
2023-05-12T04:56:09.386Z,12.90
2023-05-12T04:58:38.329Z,13.10
2023-05-12T05:01:06.891Z,13.50
2023-05-12T05:03:35.350Z,13.60
2023-05-12T05:06:03.560Z,14.00
2023-05-12T05:08:31.852Z,14.30
2023-05-12T05:10:59.984Z,14.30
2023-05-12T05:13:29.534Z,14.40
2023-05-12T05:15:57.716Z,14.40
2023-05-12T05:18:26.012Z,14.80
2023-05-12T05:20:58.604Z,14.60
2023-05-12T05:23:27.592Z,14.90
2023-05-12T05:25:56.065Z,14.70
2023-05-12T05:28:24.299Z,15.00
2023-05-12T05:30:53.978Z,15.30
2023-05-12T05:33:22.115Z,15.20
2023-05-12T05:35:50.484Z,15.40
2023-05-12T05:38:18.915Z,15.80
2023-05-12T05:40:53.637Z,15.90
2023-05-12T05:43:22.691Z,15.90
2023-05-12T05:45:51.394Z,16.20
2023-05-12T05:48:21.041Z,16.20
2023-05-12T05:50:49.724Z,16.10
2023-05-12T05:53:18.529Z,16.00
2023-05-12T05:55:47.374Z,16.20
2023-05-12T05:58:16.185Z,16.30
2023-05-12T06:00:44.837Z,16.50
2023-05-12T06:03:13.387Z,16.10
2023-05-12T06:05:43.624Z,16.20
2023-05-12T06:08:13.307Z,16.20
2023-05-12T06:10:42.098Z,16.40
2023-05-12T06:13:10.661Z,16.20
2023-05-12T06:15:39.958Z,16.40
2023-05-12T06:18:08.195Z,16.60
2023-05-12T06:20:36.454Z,16.80
2023-05-12T06:23:06.739Z,16.60
2023-05-12T06:25:34.905Z,17.00
2023-05-12T06:28:03.180Z,17.30
2023-05-12T06:30:31.510Z,17.50
2023-05-12T06:32:59.792Z,17.70
2023-05-12T06:35:28.070Z,17.90
2023-05-12T06:37:56.230Z,17.70
2023-05-12T06:40:25.777Z,18.10
2023-05-12T06:42:54.048Z,18.00
2023-05-12T06:45:23.606Z,17.80
2023-05-12T06:47:52.154Z,18.00
2023-05-12T06:50:20.549Z,18.20
2023-05-12T06:52:48.707Z,18.20
2023-05-12T06:55:19.884Z,18.20
2023-05-12T06:57:51.531Z,18.00
2023-05-12T07:00:20.618Z,18.20
2023-05-12T07:02:48.838Z,18.40
2023-05-12T07:05:18.756Z,18.30
2023-05-12T07:07:47.227Z,18.70
2023-05-12T07:10:15.416Z,18.80
2023-05-12T07:12:43.698Z,18.90
2023-05-12T07:15:13.602Z,19.10
2023-05-12T07:17:42.432Z,19.10
2023-05-12T07:20:11.236Z,19.30
2023-05-12T07:22:39.435Z,19.40
2023-05-12T07:25:08.949Z,19.80
2023-05-12T07:27:37.105Z,19.90
2023-05-12T07:30:06.947Z,19.70
2023-05-12T07:32:36.599Z,19.80
2023-05-12T07:35:05.651Z,19.70
2023-05-12T07:37:33.801Z,19.20
2023-05-12T07:40:02.176Z,19.10
2023-05-12T07:42:30.342Z,19.40
2023-05-12T07:44:58.480Z,19.60
2023-05-12T07:47:28.711Z,20.00
2023-05-12T07:49:58.266Z,20.70
2023-05-12T07:52:26.484Z,21.20
2023-05-12T07:54:56.719Z,21.60
2023-05-12T07:57:25.073Z,21.70
2023-05-12T07:59:53.286Z,21.60
2023-05-12T08:02:21.625Z,21.60
2023-05-12T08:04:51.453Z,21.70
2023-05-12T08:07:21.358Z,21.60
2023-05-12T08:09:49.546Z,21.60
2023-05-12T08:12:17.737Z,21.80
2023-05-12T08:14:45.873Z,21.80
2023-05-12T08:17:14.076Z,21.70
2023-05-12T08:19:42.408Z,21.90
2023-05-12T08:22:10.629Z,22.10
2023-05-12T08:24:40.229Z,22.10
2023-05-12T08:27:08.468Z,22.10
2023-05-12T08:29:36.715Z,22.00
2023-05-12T08:32:05.664Z,22.10
2023-05-12T08:34:33.950Z,21.80
2023-05-12T08:37:02.288Z,22.10
2023-05-12T08:39:31.861Z,22.00
2023-05-12T08:42:13.501Z,22.00
2023-05-12T08:44:41.939Z,21.90
2023-05-12T08:47:12.762Z,22.00
2023-05-12T08:49:43.730Z,22.00
2023-05-12T08:52:18.396Z,22.10
2023-05-12T08:54:55.501Z,22.20
2023-05-12T08:57:29.323Z,22.20
2023-05-12T08:59:59.250Z,22.00
2023-05-12T09:02:41.075Z,22.10
2023-05-12T09:05:16.909Z,22.30
2023-05-12T09:07:46.070Z,22.30
2023-05-12T09:10:33.699Z,22.40
2023-05-12T09:13:13.066Z,22.30
2023-05-12T09:15:46.033Z,22.20
2023-05-12T09:18:14.321Z,22.30
2023-05-12T09:20:42.559Z,22.40
2023-05-12T09:23:16.468Z,22.40
2023-05-12T09:25:44.736Z,22.20
2023-05-12T09:28:14.368Z,22.30
2023-05-12T09:30:42.887Z,22.50
2023-05-12T09:33:13.387Z,22.50
2023-05-12T09:35:43.907Z,22.20
2023-05-12T09:38:16.938Z,22.30
2023-05-12T09:40:45.073Z,22.50
2023-05-12T09:43:15.731Z,22.50
2023-05-12T09:45:46.585Z,22.50
2023-05-12T09:48:15.177Z,22.40
2023-05-12T09:50:48.744Z,22.40
2023-05-12T09:53:19.011Z,22.30
2023-05-12T09:55:49.444Z,22.40
2023-05-12T09:58:20.931Z,22.40
2023-05-12T10:03:27.374Z,22.60
2023-05-12T10:06:01.467Z,22.60
2023-05-12T10:08:36.240Z,22.80
2023-05-12T10:11:07.033Z,22.70
2023-05-12T10:13:36.866Z,22.50
2023-05-12T10:16:06.716Z,22.50
2023-05-12T10:18:36.059Z,22.60
2023-05-12T10:21:05.838Z,22.50
2023-05-12T10:23:37.906Z,22.60
2023-05-12T10:26:07.402Z,22.70
2023-05-12T10:28:37.354Z,22.70
2023-05-12T10:31:08.471Z,22.70
2023-05-12T10:33:36.908Z,22.50
2023-05-12T10:36:06.085Z,22.60
2023-05-12T10:38:38.125Z,22.70
2023-05-12T10:41:08.547Z,22.80
2023-05-12T10:43:45.036Z,22.90
2023-05-12T10:46:19.693Z,23.00
2023-05-12T10:48:56.328Z,23.00
2023-05-12T10:51:28.404Z,22.90
2023-05-12T10:54:00.993Z,23.00
2023-05-12T10:56:31.852Z,23.00
2023-05-12T10:59:15.199Z,23.00
2023-05-12T11:01:57.234Z,22.90
2023-05-12T11:04:40.728Z,22.70
2023-05-12T11:07:11.824Z,22.80
2023-05-12T11:09:56.075Z,22.90
2023-05-12T11:12:28.741Z,22.90
2023-05-12T11:15:00.673Z,23.00
2023-05-12T11:17:29.048Z,23.10
2023-05-12T11:19:58.069Z,23.20
2023-05-12T11:22:26.672Z,23.20
2023-05-12T11:24:55.028Z,23.00
2023-05-12T11:27:24.462Z,22.90
2023-05-12T11:30:04.269Z,23.10
2023-05-12T11:32:32.443Z,23.30
2023-05-12T11:35:11.819Z,23.40
2023-05-12T11:37:41.253Z,23.50
2023-05-12T11:40:20.975Z,23.50
2023-05-12T11:42:52.574Z,23.50
2023-05-12T11:45:25.182Z,23.40
2023-05-12T11:47:54.591Z,23.40
2023-05-12T11:50:26.106Z,23.50
2023-05-12T11:52:55.510Z,23.20
2023-05-12T11:55:26.053Z,23.00
2023-05-12T11:58:00.721Z,23.00
2023-05-12T12:00:33.671Z,23.20
2023-05-12T12:03:11.343Z,23.40
2023-05-12T12:05:40.911Z,23.90
2023-05-12T12:08:13.698Z,24.00
2023-05-12T12:10:45.870Z,24.20
2023-05-12T12:13:14.573Z,24.20
2023-05-12T12:15:44.192Z,23.70
2023-05-12T12:18:12.411Z,23.50
2023-05-12T12:20:40.688Z,23.70
2023-05-12T12:23:08.810Z,23.90
2023-05-12T12:25:37.288Z,24.20
2023-05-12T12:28:05.900Z,24.30
2023-05-12T12:30:35.029Z,23.90
2023-05-12T12:33:04.793Z,23.90
2023-05-12T12:35:33.004Z,23.90
2023-05-12T12:38:01.207Z,24.00
2023-05-12T12:40:29.373Z,24.30
2023-05-12T12:42:57.526Z,24.50
2023-05-12T12:45:26.559Z,24.80
2023-05-12T12:47:55.615Z,25.70
2023-05-12T12:50:26.505Z,26.30
2023-05-12T12:52:55.518Z,27.40
2023-05-12T12:55:24.149Z,27.00
2023-05-12T12:57:52.429Z,27.10
2023-05-12T13:00:23.445Z,27.60
2023-05-12T13:02:52.515Z,28.30
2023-05-12T13:05:21.061Z,28.60
2023-05-12T13:07:51.572Z,28.70
2023-05-12T13:10:19.790Z,28.40
2023-05-12T13:12:48.035Z,28.10
2023-05-12T13:15:19.156Z,27.60
2023-05-12T13:17:47.657Z,26.80
2023-05-12T13:20:17.059Z,26.40
2023-05-12T13:22:45.945Z,27.30
2023-05-12T13:25:15.641Z,28.90
2023-05-12T13:27:43.794Z,29.10
2023-05-12T13:30:13.876Z,29.30
2023-05-12T13:32:42.735Z,29.40
2023-05-12T13:35:11.395Z,29.50
2023-05-12T13:37:39.591Z,29.60
2023-05-12T13:40:09.554Z,29.20
2023-05-12T13:42:39.279Z,28.30
2023-05-12T13:45:09.514Z,27.40
2023-05-12T13:47:37.836Z,26.80
2023-05-12T13:50:07.727Z,26.30
2023-05-12T13:52:36.035Z,26.00
2023-05-12T13:55:04.357Z,27.30
2023-05-12T13:57:32.522Z,28.00
2023-05-12T14:00:03.374Z,28.20
2023-05-12T14:02:31.521Z,27.70
2023-05-12T14:04:59.797Z,27.50
2023-05-12T14:07:29.361Z,26.60
2023-05-12T14:09:58.090Z,26.60
2023-05-12T14:12:26.329Z,27.10
2023-05-12T14:14:58.118Z,27.90
2023-05-12T14:17:31.557Z,28.50
2023-05-12T14:19:59.764Z,29.10
2023-05-12T14:22:28.513Z,28.70
2023-05-12T14:24:56.675Z,28.70
2023-05-12T14:27:25.122Z,28.00
2023-05-12T14:29:53.259Z,27.00
2023-05-12T14:32:21.538Z,26.10
2023-05-12T14:34:51.048Z,26.30
2023-05-12T14:37:19.335Z,26.70
2023-05-12T14:39:47.471Z,27.60
2023-05-12T14:42:15.677Z,27.90
2023-05-12T14:44:43.830Z,27.20
2023-05-12T14:47:12.036Z,26.00
2023-05-12T14:49:40.529Z,25.70
2023-05-12T14:52:10.043Z,25.90
2023-05-12T14:54:38.365Z,25.40
2023-05-12T14:57:06.543Z,25.50
2023-05-12T14:59:34.807Z,26.30
2023-05-12T15:02:03.235Z,27.00
2023-05-12T15:04:31.652Z,27.60
2023-05-12T15:06:59.840Z,27.80
2023-05-12T15:09:29.427Z,28.00
2023-05-12T15:11:57.581Z,28.20
2023-05-12T15:14:25.925Z,28.60
2023-05-12T15:16:54.191Z,28.20
2023-05-12T15:19:22.434Z,28.10
2023-05-12T15:21:50.631Z,27.70
2023-05-12T15:24:18.821Z,27.00
2023-05-12T15:26:48.350Z,26.40
2023-05-12T15:29:16.532Z,25.90
2023-05-12T15:31:45.119Z,25.50
2023-05-12T15:34:13.468Z,25.20
2023-05-12T15:36:43.532Z,25.00
2023-05-12T15:39:12.012Z,24.90
2023-05-12T15:41:40.367Z,24.90
2023-05-12T15:44:10.058Z,24.80
2023-05-12T15:46:38.304Z,25.00
2023-05-12T15:49:06.478Z,24.90
2023-05-12T15:51:36.396Z,24.50
2023-05-12T15:54:07.036Z,24.10
2023-05-12T15:56:37.350Z,23.90
2023-05-12T15:59:06.792Z,23.50
2023-05-12T16:01:36.418Z,23.30
2023-05-12T16:04:05.019Z,23.10
2023-05-12T16:06:33.258Z,23.00
2023-05-12T16:09:01.523Z,22.60
2023-05-12T16:11:29.762Z,22.80
2023-05-12T16:13:58.096Z,22.80
2023-05-12T16:16:26.530Z,23.00
2023-05-12T16:18:56.097Z,23.10
2023-05-12T16:21:24.250Z,23.20
2023-05-12T16:23:52.746Z,23.20
2023-05-12T16:26:21.023Z,23.20
2023-05-12T16:28:49.155Z,23.20
2023-05-12T16:31:18.819Z,23.20
2023-05-12T16:33:47.022Z,23.10
2023-05-12T16:36:17.784Z,23.20
2023-05-12T16:38:46.599Z,23.10
2023-05-12T16:41:14.955Z,23.20
2023-05-12T16:43:43.145Z,23.00
2023-05-12T16:46:11.508Z,23.10
2023-05-12T16:48:39.671Z,23.00
2023-05-12T16:51:10.327Z,23.00
2023-05-12T16:53:40.318Z,22.80
2023-05-12T16:56:09.295Z,22.70
2023-05-12T16:58:37.500Z,22.60
2023-05-12T17:01:05.780Z,22.50
2023-05-12T17:03:34.348Z,22.30
2023-05-12T17:06:02.661Z,22.20
2023-05-12T17:08:30.810Z,22.00
2023-05-12T17:11:00.394Z,22.00
2023-05-12T17:13:28.592Z,21.90
2023-05-12T17:15:56.758Z,21.60
2023-05-12T17:18:25.967Z,21.60
2023-05-12T17:20:54.162Z,21.50
2023-05-12T17:23:22.645Z,21.40
2023-05-12T17:25:50.834Z,21.40
2023-05-12T17:28:21.012Z,21.30
2023-05-12T17:30:50.076Z,21.20
2023-05-12T17:33:18.523Z,21.20
2023-05-12T17:35:57.144Z,21.10
2023-05-12T17:38:34.899Z,21.10
2023-05-12T17:41:03.045Z,21.10
2023-05-12T17:43:32.653Z,21.00
2023-05-12T17:46:00.991Z,21.00
2023-05-12T17:48:32.962Z,21.00
2023-05-12T17:51:01.334Z,20.90
2023-05-12T17:53:29.641Z,20.80
2023-05-12T17:55:57.980Z,20.70
2023-05-12T17:58:26.351Z,20.70
2023-05-12T18:00:56.156Z,20.50
2023-05-12T18:03:24.450Z,20.50
2023-05-12T18:05:54.467Z,20.40
2023-05-12T18:08:22.710Z,20.40
2023-05-12T18:10:51.119Z,20.30
2023-05-12T18:13:19.434Z,20.40
2023-05-12T18:15:49.366Z,20.20
2023-05-12T18:18:19.084Z,20.20
2023-05-12T18:20:47.256Z,20.10
2023-05-12T18:23:15.591Z,20.00
2023-05-12T18:25:43.810Z,19.90
2023-05-12T18:28:12.260Z,19.90
2023-05-12T18:30:41.394Z,19.80
2023-05-12T18:33:10.532Z,19.70
2023-05-12T18:35:40.713Z,19.60
2023-05-12T18:38:09.074Z,19.50
2023-05-12T18:40:37.370Z,19.40
2023-05-12T18:43:05.666Z,19.40
2023-05-12T18:45:33.910Z,19.30
2023-05-12T18:48:02.089Z,19.20
2023-05-12T18:50:31.359Z,19.20
2023-05-12T18:53:01.736Z,19.20
2023-05-12T18:55:29.926Z,19.10
2023-05-12T18:57:58.336Z,19.10
2023-05-12T19:00:31.751Z,19.00
2023-05-12T19:03:00.277Z,18.80
2023-05-12T19:05:29.786Z,18.80
2023-05-12T19:07:58.144Z,18.80
2023-05-12T19:10:28.361Z,18.60
2023-05-12T19:12:56.761Z,18.50
2023-05-12T19:15:25.088Z,18.40
2023-05-12T19:17:53.954Z,18.30
2023-05-12T19:20:22.279Z,18.30
2023-05-12T19:22:50.630Z,18.30
2023-05-12T19:25:18.981Z,18.20
2023-05-12T19:27:48.861Z,18.10
2023-05-12T19:30:17.276Z,17.90
2023-05-12T19:32:46.379Z,17.90
2023-05-12T19:35:16.683Z,17.90
2023-05-12T19:37:45.014Z,17.80
2023-05-12T19:40:13.768Z,17.70
2023-05-12T19:42:42.489Z,17.60
2023-05-12T19:45:12.820Z,17.50
2023-05-12T19:47:41.391Z,17.50
2023-05-12T19:50:11.287Z,17.50
2023-05-12T19:52:39.565Z,17.50
2023-05-12T19:55:09.517Z,17.40
2023-05-12T19:57:38.165Z,17.50
2023-05-12T20:00:08.108Z,17.30
2023-05-12T20:02:37.932Z,17.20
2023-05-12T20:05:07.055Z,17.30
2023-05-12T20:07:35.396Z,17.20
2023-05-12T20:10:03.986Z,17.20
2023-05-12T20:12:32.194Z,17.10
2023-05-12T20:15:00.488Z,17.00
2023-05-12T20:17:28.751Z,17.00
2023-05-12T20:19:58.490Z,16.90
2023-05-12T20:22:26.695Z,16.80
2023-05-12T20:24:54.799Z,16.80
2023-05-12T20:27:23.052Z,16.90
2023-05-12T20:29:51.652Z,16.70
2023-05-12T20:32:19.918Z,16.70
2023-05-12T20:34:48.094Z,16.70
2023-05-12T20:37:18.234Z,16.70
2023-05-12T20:39:46.525Z,16.70
2023-05-12T20:42:14.697Z,16.70
2023-05-12T20:44:42.997Z,16.50
2023-05-12T20:47:11.196Z,16.50
2023-05-12T20:49:39.525Z,16.60
2023-05-12T20:52:08.417Z,16.50
2023-05-12T20:54:38.525Z,16.40
2023-05-12T20:57:07.307Z,16.40
2023-05-12T20:59:35.520Z,16.50
2023-05-12T21:02:03.749Z,16.40
2023-05-12T21:04:31.916Z,16.30
2023-05-12T21:07:03.073Z,16.30
2023-05-12T21:09:31.578Z,16.30
2023-05-12T21:12:01.095Z,16.30
2023-05-12T21:14:29.318Z,16.40
2023-05-12T21:16:57.705Z,16.30
2023-05-12T21:19:25.946Z,16.20
2023-05-12T21:21:54.168Z,16.00
2023-05-12T21:24:22.312Z,16.10
2023-05-12T21:26:50.491Z,16.00
2023-05-12T21:29:20.058Z,16.00
2023-05-12T21:31:48.453Z,15.90
2023-05-12T21:34:16.736Z,15.70
2023-05-12T21:36:44.910Z,15.70
2023-05-12T21:39:13.176Z,15.60
2023-05-12T21:41:41.406Z,15.40
2023-05-12T21:44:11.195Z,15.30
2023-05-12T21:46:41.107Z,15.30
2023-05-12T21:49:09.381Z,15.20
2023-05-12T21:51:37.768Z,15.30
2023-05-12T21:54:06.100Z,15.20
2023-05-12T21:56:34.375Z,15.20
2023-05-12T21:59:02.670Z,15.20
2023-05-12T22:01:31.278Z,15.20
2023-05-12T22:04:01.018Z,15.10
2023-05-12T22:06:29.378Z,15.10
2023-05-12T22:08:57.924Z,15.00
2023-05-12T22:11:26.233Z,14.90
2023-05-12T22:13:54.528Z,14.80
2023-05-12T22:16:31.103Z,14.70
2023-05-12T22:19:04.361Z,14.70
2023-05-12T22:21:32.864Z,14.80
2023-05-12T22:24:01.090Z,14.60
2023-05-12T22:26:29.460Z,14.50
2023-05-12T22:28:57.656Z,14.50
2023-05-12T22:31:25.974Z,14.50
2023-05-12T22:33:54.459Z,14.50
2023-05-12T22:36:24.208Z,14.50
2023-05-12T22:38:52.510Z,14.50
2023-05-12T22:41:20.784Z,14.50
2023-05-12T22:43:48.961Z,14.60
2023-05-12T22:46:17.253Z,14.50
2023-05-12T22:48:45.527Z,14.70
2023-05-12T22:51:13.972Z,14.80
2023-05-12T22:53:43.561Z,14.80
2023-05-12T22:56:11.790Z,14.90
2023-05-12T22:58:40.130Z,14.90
2023-05-12T23:01:08.475Z,14.90
2023-05-12T23:03:37.305Z,14.90
2023-05-12T23:06:06.280Z,14.90
2023-05-12T23:08:34.895Z,14.90
2023-05-12T23:11:04.615Z,14.90
2023-05-12T23:13:32.931Z,14.80
2023-05-12T23:16:01.155Z,14.80
2023-05-12T23:18:29.467Z,14.60
2023-05-12T23:20:57.723Z,14.70
2023-05-12T23:23:26.061Z,14.70
2023-05-12T23:25:54.779Z,14.80
2023-05-12T23:28:24.572Z,14.80
2023-05-12T23:30:52.707Z,14.60
2023-05-12T23:33:21.094Z,14.70
2023-05-12T23:35:49.644Z,14.60
2023-05-12T23:38:17.843Z,14.50
2023-05-12T23:40:46.266Z,14.40
2023-05-12T23:43:14.481Z,14.30
2023-05-12T23:45:44.111Z,14.10
2023-05-12T23:48:12.377Z,14.00
2023-05-12T23:50:40.650Z,14.00
2023-05-12T23:53:08.860Z,13.90
2023-05-12T23:55:38.519Z,14.10
2023-05-12T23:58:06.941Z,14.20
